sensor_id;sensor_type;location;lat;lon;timestamp;P1;durP1;ratioP1;P2;durP2;ratioP2
15130;SDS011;7666;50.920;4.628;2023-08-30T00:01:53;5.60;;;4.97;;
15130;SDS011;7666;50.920;4.628;2023-08-30T00:04:39;7.60;;;4.63;;
15130;SDS011;7666;50.920;4.628;2023-08-30T00:07:26;5.50;;;4.33;;
15130;SDS011;7666;50.920;4.628;2023-08-30T00:10:12;6.80;;;4.63;;
15130;SDS011;7666;50.920;4.628;2023-08-30T00:12:58;6.90;;;4.60;;
15130;SDS011;7666;50.920;4.628;2023-08-30T00:15:44;4.93;;;4.43;;
15130;SDS011;7666;50.920;4.628;2023-08-30T00:18:30;5.63;;;4.60;;
15130;SDS011;7666;50.920;4.628;2023-08-30T00:21:16;5.80;;;4.80;;
15130;SDS011;7666;50.920;4.628;2023-08-30T00:24:02;4.50;;;3.77;;
15130;SDS011;7666;50.920;4.628;2023-08-30T00:26:48;5.03;;;3.93;;
15130;SDS011;7666;50.920;4.628;2023-08-30T00:29:34;4.43;;;3.83;;
15130;SDS011;7666;50.920;4.628;2023-08-30T00:32:20;5.03;;;3.73;;
15130;SDS011;7666;50.920;4.628;2023-08-30T00:35:06;5.83;;;3.60;;
15130;SDS011;7666;50.920;4.628;2023-08-30T00:37:53;6.87;;;3.97;;
15130;SDS011;7666;50.920;4.628;2023-08-30T00:40:39;5.67;;;4.10;;
15130;SDS011;7666;50.920;4.628;2023-08-30T00:43:25;5.20;;;4.37;;
15130;SDS011;7666;50.920;4.628;2023-08-30T00:46:11;4.90;;;4.27;;
15130;SDS011;7666;50.920;4.628;2023-08-30T00:48:58;5.27;;;4.60;;
15130;SDS011;7666;50.920;4.628;2023-08-30T00:51:45;6.13;;;4.67;;
15130;SDS011;7666;50.920;4.628;2023-08-30T00:54:31;5.57;;;4.40;;
15130;SDS011;7666;50.920;4.628;2023-08-30T00:57:17;5.73;;;4.50;;
15130;SDS011;7666;50.920;4.628;2023-08-30T01:00:03;5.03;;;4.00;;
15130;SDS011;7666;50.920;4.628;2023-08-30T01:02:51;4.93;;;4.37;;
15130;SDS011;7666;50.920;4.628;2023-08-30T01:05:37;6.10;;;4.60;;
15130;SDS011;7666;50.920;4.628;2023-08-30T01:08:23;6.00;;;4.30;;
15130;SDS011;7666;50.920;4.628;2023-08-30T01:14:13;5.30;;;4.10;;
15130;SDS011;7666;50.920;4.628;2023-08-30T01:17:04;5.77;;;4.20;;
15130;SDS011;7666;50.920;4.628;2023-08-30T01:19:53;4.80;;;4.20;;
15130;SDS011;7666;50.920;4.628;2023-08-30T01:22:47;5.20;;;3.83;;
15130;SDS011;7666;50.920;4.628;2023-08-30T01:25:57;6.27;;;4.70;;
15130;SDS011;7666;50.920;4.628;2023-08-30T01:28:54;4.00;;;3.53;;
15130;SDS011;7666;50.920;4.628;2023-08-30T01:31:42;6.53;;;3.80;;
15130;SDS011;7666;50.920;4.628;2023-08-30T01:34:29;6.70;;;3.83;;
15130;SDS011;7666;50.920;4.628;2023-08-30T01:37:16;4.27;;;3.13;;
15130;SDS011;7666;50.920;4.628;2023-08-30T01:40:03;4.33;;;3.40;;
15130;SDS011;7666;50.920;4.628;2023-08-30T01:42:50;4.67;;;3.53;;
15130;SDS011;7666;50.920;4.628;2023-08-30T01:45:40;4.00;;;3.60;;
15130;SDS011;7666;50.920;4.628;2023-08-30T01:48:28;5.37;;;3.67;;
15130;SDS011;7666;50.920;4.628;2023-08-30T01:51:15;6.13;;;4.37;;
15130;SDS011;7666;50.920;4.628;2023-08-30T01:54:02;5.30;;;4.80;;
15130;SDS011;7666;50.920;4.628;2023-08-30T01:56:49;8.43;;;5.10;;
15130;SDS011;7666;50.920;4.628;2023-08-30T01:59:35;5.80;;;5.30;;
15130;SDS011;7666;50.920;4.628;2023-08-30T02:02:21;6.47;;;4.73;;
15130;SDS011;7666;50.920;4.628;2023-08-30T02:05:07;7.53;;;5.10;;
15130;SDS011;7666;50.920;4.628;2023-08-30T02:10:41;4.53;;;4.13;;
15130;SDS011;7666;50.920;4.628;2023-08-30T02:13:35;5.70;;;5.10;;
15130;SDS011;7666;50.920;4.628;2023-08-30T02:16:21;6.53;;;5.53;;
15130;SDS011;7666;50.920;4.628;2023-08-30T02:19:08;8.40;;;6.00;;
15130;SDS011;7666;50.920;4.628;2023-08-30T02:21:54;6.10;;;5.50;;
15130;SDS011;7666;50.920;4.628;2023-08-30T02:24:40;6.07;;;5.47;;
15130;SDS011;7666;50.920;4.628;2023-08-30T02:27:26;6.60;;;5.20;;
15130;SDS011;7666;50.920;4.628;2023-08-30T02:30:12;8.37;;;5.87;;
15130;SDS011;7666;50.920;4.628;2023-08-30T02:32:58;6.83;;;5.33;;
15130;SDS011;7666;50.920;4.628;2023-08-30T02:35:44;6.60;;;5.90;;
15130;SDS011;7666;50.920;4.628;2023-08-30T02:38:30;6.60;;;5.87;;
15130;SDS011;7666;50.920;4.628;2023-08-30T02:41:16;6.73;;;6.03;;
15130;SDS011;7666;50.920;4.628;2023-08-30T02:44:02;8.13;;;6.07;;
15130;SDS011;7666;50.920;4.628;2023-08-30T02:46:48;7.50;;;6.43;;
15130;SDS011;7666;50.920;4.628;2023-08-30T02:49:34;9.50;;;6.23;;
15130;SDS011;7666;50.920;4.628;2023-08-30T02:52:20;7.07;;;5.77;;
15130;SDS011;7666;50.920;4.628;2023-08-30T02:55:06;6.73;;;5.33;;
15130;SDS011;7666;50.920;4.628;2023-08-30T02:57:52;6.77;;;6.17;;
15130;SDS011;7666;50.920;4.628;2023-08-30T03:00:38;7.10;;;5.57;;
15130;SDS011;7666;50.920;4.628;2023-08-30T03:03:24;7.27;;;5.83;;
15130;SDS011;7666;50.920;4.628;2023-08-30T03:06:10;7.00;;;6.13;;
15130;SDS011;7666;50.920;4.628;2023-08-30T03:08:56;7.00;;;5.90;;
15130;SDS011;7666;50.920;4.628;2023-08-30T03:11:42;6.63;;;5.90;;
15130;SDS011;7666;50.920;4.628;2023-08-30T03:14:28;6.53;;;5.83;;
15130;SDS011;7666;50.920;4.628;2023-08-30T03:17:14;6.67;;;5.80;;
15130;SDS011;7666;50.920;4.628;2023-08-30T03:20:00;7.47;;;6.20;;
15130;SDS011;7666;50.920;4.628;2023-08-30T03:22:46;7.40;;;6.00;;
15130;SDS011;7666;50.920;4.628;2023-08-30T03:25:32;8.17;;;6.33;;
15130;SDS011;7666;50.920;4.628;2023-08-30T03:28:18;8.17;;;7.03;;
15130;SDS011;7666;50.920;4.628;2023-08-30T03:34:01;13.87;;;7.87;;
15130;SDS011;7666;50.920;4.628;2023-08-30T03:36:47;12.50;;;8.50;;
15130;SDS011;7666;50.920;4.628;2023-08-30T03:39:39;11.80;;;7.63;;
15130;SDS011;7666;50.920;4.628;2023-08-30T03:42:25;12.13;;;8.93;;
15130;SDS011;7666;50.920;4.628;2023-08-30T03:45:11;15.00;;;9.13;;
15130;SDS011;7666;50.920;4.628;2023-08-30T03:47:57;13.13;;;8.17;;
15130;SDS011;7666;50.920;4.628;2023-08-30T03:50:43;11.17;;;7.60;;
15130;SDS011;7666;50.920;4.628;2023-08-30T03:53:29;10.43;;;8.20;;
15130;SDS011;7666;50.920;4.628;2023-08-30T03:56:17;11.10;;;8.10;;
15130;SDS011;7666;50.920;4.628;2023-08-30T03:59:03;10.47;;;8.20;;
15130;SDS011;7666;50.920;4.628;2023-08-30T04:01:49;10.77;;;8.80;;
15130;SDS011;7666;50.920;4.628;2023-08-30T04:04:35;11.23;;;9.00;;
15130;SDS011;7666;50.920;4.628;2023-08-30T04:07:22;12.03;;;8.30;;
15130;SDS011;7666;50.920;4.628;2023-08-30T04:10:08;10.93;;;8.70;;
15130;SDS011;7666;50.920;4.628;2023-08-30T04:12:54;9.57;;;8.60;;
15130;SDS011;7666;50.920;4.628;2023-08-30T04:15:40;10.20;;;8.77;;
15130;SDS011;7666;50.920;4.628;2023-08-30T04:18:26;11.30;;;9.17;;
15130;SDS011;7666;50.920;4.628;2023-08-30T04:21:12;10.03;;;9.03;;
15130;SDS011;7666;50.920;4.628;2023-08-30T04:23:58;13.33;;;8.73;;
15130;SDS011;7666;50.920;4.628;2023-08-30T04:26:44;10.07;;;8.97;;
15130;SDS011;7666;50.920;4.628;2023-08-30T04:29:30;9.33;;;8.30;;
15130;SDS011;7666;50.920;4.628;2023-08-30T04:32:16;12.57;;;8.93;;
15130;SDS011;7666;50.920;4.628;2023-08-30T04:35:02;11.57;;;9.20;;
15130;SDS011;7666;50.920;4.628;2023-08-30T04:37:48;9.83;;;7.73;;
15130;SDS011;7666;50.920;4.628;2023-08-30T04:40:34;9.70;;;7.73;;
15130;SDS011;7666;50.920;4.628;2023-08-30T04:43:20;10.53;;;7.80;;
15130;SDS011;7666;50.920;4.628;2023-08-30T04:46:06;9.13;;;7.50;;
15130;SDS011;7666;50.920;4.628;2023-08-30T04:48:52;11.07;;;7.10;;
15130;SDS011;7666;50.920;4.628;2023-08-30T04:51:38;8.67;;;6.73;;
15130;SDS011;7666;50.920;4.628;2023-08-30T04:54:24;8.13;;;6.37;;
15130;SDS011;7666;50.920;4.628;2023-08-30T04:57:10;9.03;;;6.67;;
15130;SDS011;7666;50.920;4.628;2023-08-30T04:59:59;7.90;;;6.20;;
15130;SDS011;7666;50.920;4.628;2023-08-30T05:02:49;8.67;;;6.10;;
15130;SDS011;7666;50.920;4.628;2023-08-30T05:05:35;11.47;;;6.83;;
15130;SDS011;7666;50.920;4.628;2023-08-30T05:08:21;10.20;;;6.30;;
15130;SDS011;7666;50.920;4.628;2023-08-30T05:11:07;10.03;;;6.80;;
15130;SDS011;7666;50.920;4.628;2023-08-30T05:13:56;7.43;;;6.33;;
15130;SDS011;7666;50.920;4.628;2023-08-30T05:16:42;11.30;;;6.63;;
15130;SDS011;7666;50.920;4.628;2023-08-30T05:19:28;10.17;;;6.97;;
15130;SDS011;7666;50.920;4.628;2023-08-30T05:22:14;9.40;;;6.57;;
15130;SDS011;7666;50.920;4.628;2023-08-30T05:25:01;9.40;;;6.57;;
15130;SDS011;7666;50.920;4.628;2023-08-30T05:27:47;7.70;;;6.23;;
15130;SDS011;7666;50.920;4.628;2023-08-30T05:30:33;7.70;;;6.03;;
15130;SDS011;7666;50.920;4.628;2023-08-30T05:33:19;8.97;;;6.03;;
15130;SDS011;7666;50.920;4.628;2023-08-30T05:36:05;7.90;;;5.47;;
15130;SDS011;7666;50.920;4.628;2023-08-30T05:38:51;7.67;;;5.40;;
15130;SDS011;7666;50.920;4.628;2023-08-30T05:41:37;6.33;;;4.87;;
15130;SDS011;7666;50.920;4.628;2023-08-30T05:44:23;6.60;;;4.93;;
15130;SDS011;7666;50.920;4.628;2023-08-30T05:47:09;8.27;;;4.83;;
15130;SDS011;7666;50.920;4.628;2023-08-30T05:50:00;10.40;;;5.30;;
15130;SDS011;7666;50.920;4.628;2023-08-30T05:52:46;7.13;;;5.13;;
15130;SDS011;7666;50.920;4.628;2023-08-30T05:55:31;7.47;;;5.10;;
15130;SDS011;7666;50.920;4.628;2023-08-30T05:58:17;5.90;;;5.30;;
15130;SDS011;7666;50.920;4.628;2023-08-30T06:01:04;6.77;;;5.30;;
15130;SDS011;7666;50.920;4.628;2023-08-30T06:03:51;7.40;;;5.07;;
15130;SDS011;7666;50.920;4.628;2023-08-30T06:06:37;6.57;;;5.30;;
15130;SDS011;7666;50.920;4.628;2023-08-30T06:09:23;7.43;;;5.10;;
15130;SDS011;7666;50.920;4.628;2023-08-30T06:12:09;5.37;;;4.73;;
15130;SDS011;7666;50.920;4.628;2023-08-30T06:14:55;8.10;;;4.97;;
15130;SDS011;7666;50.920;4.628;2023-08-30T06:17:41;5.20;;;4.70;;
15130;SDS011;7666;50.920;4.628;2023-08-30T06:20:27;6.43;;;5.00;;
15130;SDS011;7666;50.920;4.628;2023-08-30T06:23:14;7.87;;;4.87;;
15130;SDS011;7666;50.920;4.628;2023-08-30T06:26:03;5.37;;;4.73;;
15130;SDS011;7666;50.920;4.628;2023-08-30T06:28:49;6.03;;;4.30;;
15130;SDS011;7666;50.920;4.628;2023-08-30T06:31:35;5.73;;;4.57;;
15130;SDS011;7666;50.920;4.628;2023-08-30T06:34:22;4.67;;;3.77;;
15130;SDS011;7666;50.920;4.628;2023-08-30T06:37:08;7.07;;;3.97;;
15130;SDS011;7666;50.920;4.628;2023-08-30T06:39:54;6.43;;;4.23;;
15130;SDS011;7666;50.920;4.628;2023-08-30T06:42:40;7.13;;;3.60;;
15130;SDS011;7666;50.920;4.628;2023-08-30T06:45:26;5.90;;;3.87;;
15130;SDS011;7666;50.920;4.628;2023-08-30T06:48:12;4.10;;;3.70;;
15130;SDS011;7666;50.920;4.628;2023-08-30T06:50:58;5.10;;;3.70;;
15130;SDS011;7666;50.920;4.628;2023-08-30T06:53:44;4.00;;;3.60;;
15130;SDS011;7666;50.920;4.628;2023-08-30T06:56:32;4.40;;;3.63;;
15130;SDS011;7666;50.920;4.628;2023-08-30T06:59:18;6.17;;;3.93;;
15130;SDS011;7666;50.920;4.628;2023-08-30T07:02:04;5.93;;;4.33;;
15130;SDS011;7666;50.920;4.628;2023-08-30T07:04:50;5.63;;;4.43;;
15130;SDS011;7666;50.920;4.628;2023-08-30T07:07:36;4.20;;;3.80;;
15130;SDS011;7666;50.920;4.628;2023-08-30T07:10:22;5.17;;;4.47;;
15130;SDS011;7666;50.920;4.628;2023-08-30T07:13:08;5.40;;;4.33;;
15130;SDS011;7666;50.920;4.628;2023-08-30T07:15:58;5.00;;;4.43;;
15130;SDS011;7666;50.920;4.628;2023-08-30T07:18:43;5.30;;;4.40;;
15130;SDS011;7666;50.920;4.628;2023-08-30T07:21:29;4.67;;;4.23;;
15130;SDS011;7666;50.920;4.628;2023-08-30T07:24:15;5.13;;;4.63;;
15130;SDS011;7666;50.920;4.628;2023-08-30T07:27:02;6.13;;;4.93;;
15130;SDS011;7666;50.920;4.628;2023-08-30T07:29:48;5.07;;;4.57;;
15130;SDS011;7666;50.920;4.628;2023-08-30T07:32:34;5.37;;;4.87;;
15130;SDS011;7666;50.920;4.628;2023-08-30T07:35:21;5.53;;;4.80;;
15130;SDS011;7666;50.920;4.628;2023-08-30T07:38:07;5.37;;;4.97;;
15130;SDS011;7666;50.920;4.628;2023-08-30T07:40:53;6.30;;;4.67;;
15130;SDS011;7666;50.920;4.628;2023-08-30T07:43:39;5.77;;;5.10;;
15130;SDS011;7666;50.920;4.628;2023-08-30T07:46:25;6.17;;;4.67;;
15130;SDS011;7666;50.920;4.628;2023-08-30T07:49:11;5.27;;;4.10;;
15130;SDS011;7666;50.920;4.628;2023-08-30T07:51:57;5.83;;;4.27;;
15130;SDS011;7666;50.920;4.628;2023-08-30T07:54:43;6.17;;;4.27;;
15130;SDS011;7666;50.920;4.628;2023-08-30T07:57:29;4.67;;;4.27;;
15130;SDS011;7666;50.920;4.628;2023-08-30T08:00:15;4.83;;;4.33;;
15130;SDS011;7666;50.920;4.628;2023-08-30T08:03:02;5.23;;;4.10;;
15130;SDS011;7666;50.920;4.628;2023-08-30T08:05:48;4.97;;;3.67;;
15130;SDS011;7666;50.920;4.628;2023-08-30T08:08:34;3.77;;;3.47;;
15130;SDS011;7666;50.920;4.628;2023-08-30T08:11:20;3.40;;;3.07;;
15130;SDS011;7666;50.920;4.628;2023-08-30T08:14:06;4.47;;;3.20;;
15130;SDS011;7666;50.920;4.628;2023-08-30T08:16:52;3.40;;;3.10;;
15130;SDS011;7666;50.920;4.628;2023-08-30T08:19:38;4.43;;;2.73;;
15130;SDS011;7666;50.920;4.628;2023-08-30T08:22:25;2.90;;;2.67;;
15130;SDS011;7666;50.920;4.628;2023-08-30T08:25:11;3.80;;;3.27;;
15130;SDS011;7666;50.920;4.628;2023-08-30T08:27:57;3.20;;;2.60;;
15130;SDS011;7666;50.920;4.628;2023-08-30T08:30:43;2.70;;;2.40;;
15130;SDS011;7666;50.920;4.628;2023-08-30T08:33:31;2.67;;;2.47;;
15130;SDS011;7666;50.920;4.628;2023-08-30T08:36:16;2.27;;;2.07;;
15130;SDS011;7666;50.920;4.628;2023-08-30T08:39:02;3.00;;;2.00;;
15130;SDS011;7666;50.920;4.628;2023-08-30T08:41:49;2.97;;;2.67;;
15130;SDS011;7666;50.920;4.628;2023-08-30T08:44:38;6.00;;;3.23;;
15130;SDS011;7666;50.920;4.628;2023-08-30T08:47:26;4.20;;;2.90;;
15130;SDS011;7666;50.920;4.628;2023-08-30T08:50:15;4.00;;;2.30;;
15130;SDS011;7666;50.920;4.628;2023-08-30T08:53:02;2.80;;;2.53;;
15130;SDS011;7666;50.920;4.628;2023-08-30T08:55:49;3.30;;;2.50;;
15130;SDS011;7666;50.920;4.628;2023-08-30T08:58:36;4.43;;;2.83;;
15130;SDS011;7666;50.920;4.628;2023-08-30T09:01:24;3.43;;;2.47;;
15130;SDS011;7666;50.920;4.628;2023-08-30T09:04:11;3.50;;;2.70;;
15130;SDS011;7666;50.920;4.628;2023-08-30T09:06:58;3.20;;;2.60;;
15130;SDS011;7666;50.920;4.628;2023-08-30T09:09:46;3.00;;;2.50;;
15130;SDS011;7666;50.920;4.628;2023-08-30T09:12:33;3.10;;;2.77;;
15130;SDS011;7666;50.920;4.628;2023-08-30T09:15:20;3.20;;;2.80;;
15130;SDS011;7666;50.920;4.628;2023-08-30T09:18:17;3.93;;;3.47;;
15130;SDS011;7666;50.920;4.628;2023-08-30T09:21:09;3.67;;;3.30;;
15130;SDS011;7666;50.920;4.628;2023-08-30T09:24:05;4.80;;;3.73;;
15130;SDS011;7666;50.920;4.628;2023-08-30T09:26:52;5.83;;;3.77;;
15130;SDS011;7666;50.920;4.628;2023-08-30T09:29:39;5.27;;;4.77;;
15130;SDS011;7666;50.920;4.628;2023-08-30T09:32:29;4.23;;;3.87;;
15130;SDS011;7666;50.920;4.628;2023-08-30T09:35:15;5.20;;;4.67;;
15130;SDS011;7666;50.920;4.628;2023-08-30T09:38:01;4.43;;;4.03;;
15130;SDS011;7666;50.920;4.628;2023-08-30T09:40:47;4.93;;;4.43;;
15130;SDS011;7666;50.920;4.628;2023-08-30T09:43:33;6.20;;;4.23;;
15130;SDS011;7666;50.920;4.628;2023-08-30T09:46:19;4.47;;;4.07;;
15130;SDS011;7666;50.920;4.628;2023-08-30T09:49:05;5.00;;;4.50;;
15130;SDS011;7666;50.920;4.628;2023-08-30T09:51:53;6.40;;;4.30;;
15130;SDS011;7666;50.920;4.628;2023-08-30T09:54:39;4.93;;;4.43;;
15130;SDS011;7666;50.920;4.628;2023-08-30T09:57:29;5.07;;;4.57;;
15130;SDS011;7666;50.920;4.628;2023-08-30T10:00:15;5.53;;;4.90;;
15130;SDS011;7666;50.920;4.628;2023-08-30T10:03:02;5.30;;;4.80;;
15130;SDS011;7666;50.920;4.628;2023-08-30T10:05:48;5.63;;;5.13;;
15130;SDS011;7666;50.920;4.628;2023-08-30T10:08:34;5.37;;;4.97;;
15130;SDS011;7666;50.920;4.628;2023-08-30T10:11:23;5.37;;;4.87;;
15130;SDS011;7666;50.920;4.628;2023-08-30T10:14:09;6.20;;;5.60;;
15130;SDS011;7666;50.920;4.628;2023-08-30T10:17:01;7.53;;;5.03;;
15130;SDS011;7666;50.920;4.628;2023-08-30T10:19:52;5.93;;;5.20;;
15130;SDS011;7666;50.920;4.628;2023-08-30T10:22:40;6.33;;;5.63;;
15130;SDS011;7666;50.920;4.628;2023-08-30T10:25:30;6.47;;;5.87;;
15130;SDS011;7666;50.920;4.628;2023-08-30T10:28:17;7.33;;;6.03;;
15130;SDS011;7666;50.920;4.628;2023-08-30T10:31:05;7.00;;;5.90;;
15130;SDS011;7666;50.920;4.628;2023-08-30T10:33:54;6.97;;;5.87;;
15130;SDS011;7666;50.920;4.628;2023-08-30T10:36:41;6.87;;;6.27;;
15130;SDS011;7666;50.920;4.628;2023-08-30T10:39:35;9.37;;;6.83;;
15130;SDS011;7666;50.920;4.628;2023-08-30T10:42:22;7.57;;;6.13;;
15130;SDS011;7666;50.920;4.628;2023-08-30T10:45:09;7.47;;;6.63;;
15130;SDS011;7666;50.920;4.628;2023-08-30T10:47:56;7.23;;;5.93;;
15130;SDS011;7666;50.920;4.628;2023-08-30T10:50:44;7.43;;;6.13;;
15130;SDS011;7666;50.920;4.628;2023-08-30T10:53:30;6.57;;;5.97;;
15130;SDS011;7666;50.920;4.628;2023-08-30T10:56:16;6.50;;;5.67;;
15130;SDS011;7666;50.920;4.628;2023-08-30T10:59:02;6.70;;;6.10;;
15130;SDS011;7666;50.920;4.628;2023-08-30T11:01:49;6.70;;;5.80;;
15130;SDS011;7666;50.920;4.628;2023-08-30T11:04:39;7.07;;;5.53;;
15130;SDS011;7666;50.920;4.628;2023-08-30T11:07:26;6.23;;;5.63;;
15130;SDS011;7666;50.920;4.628;2023-08-30T11:10:13;5.93;;;5.43;;
15130;SDS011;7666;50.920;4.628;2023-08-30T11:12:59;6.93;;;5.73;;
15130;SDS011;7666;50.920;4.628;2023-08-30T11:15:46;5.90;;;4.57;;
15130;SDS011;7666;50.920;4.628;2023-08-30T11:18:39;6.40;;;5.47;;
15130;SDS011;7666;50.920;4.628;2023-08-30T11:21:26;5.70;;;5.20;;
15130;SDS011;7666;50.920;4.628;2023-08-30T11:24:12;6.40;;;5.80;;
15130;SDS011;7666;50.920;4.628;2023-08-30T11:27:00;5.80;;;5.30;;
15130;SDS011;7666;50.920;4.628;2023-08-30T11:29:46;6.33;;;5.50;;
15130;SDS011;7666;50.920;4.628;2023-08-30T11:32:33;6.07;;;4.93;;
15130;SDS011;7666;50.920;4.628;2023-08-30T11:35:23;5.50;;;5.00;;
15130;SDS011;7666;50.920;4.628;2023-08-30T11:38:09;5.43;;;4.93;;
15130;SDS011;7666;50.920;4.628;2023-08-30T11:40:55;5.53;;;4.50;;
15130;SDS011;7666;50.920;4.628;2023-08-30T11:43:43;7.13;;;4.57;;
15130;SDS011;7666;50.920;4.628;2023-08-30T11:46:29;7.33;;;4.27;;
15130;SDS011;7666;50.920;4.628;2023-08-30T11:49:16;6.50;;;4.47;;
15130;SDS011;7666;50.920;4.628;2023-08-30T11:52:02;7.87;;;4.30;;
15130;SDS011;7666;50.920;4.628;2023-08-30T11:54:49;6.70;;;4.37;;
15130;SDS011;7666;50.920;4.628;2023-08-30T11:57:36;6.50;;;3.67;;
15130;SDS011;7666;50.920;4.628;2023-08-30T12:00:22;5.93;;;3.17;;
15130;SDS011;7666;50.920;4.628;2023-08-30T12:03:08;9.27;;;3.30;;
15130;SDS011;7666;50.920;4.628;2023-08-30T12:05:54;5.90;;;2.87;;
15130;SDS011;7666;50.920;4.628;2023-08-30T12:08:40;4.87;;;2.43;;
15130;SDS011;7666;50.920;4.628;2023-08-30T12:11:26;5.50;;;2.27;;
15130;SDS011;7666;50.920;4.628;2023-08-30T12:14:14;5.50;;;2.17;;
15130;SDS011;7666;50.920;4.628;2023-08-30T12:17:00;5.10;;;2.30;;
15130;SDS011;7666;50.920;4.628;2023-08-30T12:19:54;4.23;;;1.90;;
15130;SDS011;7666;50.920;4.628;2023-08-30T12:22:43;5.93;;;2.20;;
15130;SDS011;7666;50.920;4.628;2023-08-30T12:25:29;5.37;;;1.87;;
15130;SDS011;7666;50.920;4.628;2023-08-30T12:28:17;5.63;;;2.53;;
15130;SDS011;7666;50.920;4.628;2023-08-30T12:31:03;4.43;;;2.07;;
15130;SDS011;7666;50.920;4.628;2023-08-30T12:33:50;7.60;;;2.47;;
15130;SDS011;7666;50.920;4.628;2023-08-30T12:36:36;5.30;;;2.00;;
15130;SDS011;7666;50.920;4.628;2023-08-30T12:39:22;7.80;;;2.60;;
15130;SDS011;7666;50.920;4.628;2023-08-30T12:42:08;7.57;;;2.03;;
15130;SDS011;7666;50.920;4.628;2023-08-30T12:44:54;7.67;;;2.50;;
15130;SDS011;7666;50.920;4.628;2023-08-30T12:47:40;7.47;;;2.30;;
15130;SDS011;7666;50.920;4.628;2023-08-30T12:50:26;6.07;;;1.97;;
15130;SDS011;7666;50.920;4.628;2023-08-30T12:53:12;8.07;;;2.20;;
15130;SDS011;7666;50.920;4.628;2023-08-30T12:55:58;4.90;;;2.00;;
15130;SDS011;7666;50.920;4.628;2023-08-30T12:58:44;5.97;;;1.93;;
15130;SDS011;7666;50.920;4.628;2023-08-30T13:01:30;6.33;;;1.70;;
15130;SDS011;7666;50.920;4.628;2023-08-30T13:04:16;4.07;;;1.87;;
15130;SDS011;7666;50.920;4.628;2023-08-30T13:07:02;5.93;;;1.90;;
15130;SDS011;7666;50.920;4.628;2023-08-30T13:09:48;7.70;;;2.27;;
15130;SDS011;7666;50.920;4.628;2023-08-30T13:12:35;6.83;;;2.03;;
15130;SDS011;7666;50.920;4.628;2023-08-30T13:15:21;6.53;;;2.10;;
15130;SDS011;7666;50.920;4.628;2023-08-30T13:18:07;6.53;;;1.90;;
15130;SDS011;7666;50.920;4.628;2023-08-30T13:20:56;6.07;;;2.00;;
15130;SDS011;7666;50.920;4.628;2023-08-30T13:23:42;8.23;;;2.17;;
15130;SDS011;7666;50.920;4.628;2023-08-30T13:26:28;6.03;;;1.90;;
15130;SDS011;7666;50.920;4.628;2023-08-30T13:29:14;6.50;;;1.80;;
15130;SDS011;7666;50.920;4.628;2023-08-30T13:32:00;7.03;;;2.20;;
15130;SDS011;7666;50.920;4.628;2023-08-30T13:34:46;7.13;;;2.00;;
15130;SDS011;7666;50.920;4.628;2023-08-30T13:37:32;5.13;;;1.47;;
15130;SDS011;7666;50.920;4.628;2023-08-30T13:40:18;3.87;;;1.17;;
15130;SDS011;7666;50.920;4.628;2023-08-30T13:43:05;6.10;;;1.97;;
15130;SDS011;7666;50.920;4.628;2023-08-30T13:45:58;3.67;;;1.33;;
15130;SDS011;7666;50.920;4.628;2023-08-30T13:48:45;4.23;;;1.47;;
15130;SDS011;7666;50.920;4.628;2023-08-30T13:51:32;6.30;;;2.00;;
15130;SDS011;7666;50.920;4.628;2023-08-30T13:54:18;7.20;;;1.73;;
15130;SDS011;7666;50.920;4.628;2023-08-30T13:57:04;3.87;;;1.67;;
15130;SDS011;7666;50.920;4.628;2023-08-30T13:59:50;5.83;;;1.47;;
15130;SDS011;7666;50.920;4.628;2023-08-30T14:02:36;6.23;;;1.80;;
15130;SDS011;7666;50.920;4.628;2023-08-30T14:05:22;3.80;;;1.30;;
15130;SDS011;7666;50.920;4.628;2023-08-30T14:08:08;4.97;;;1.40;;
15130;SDS011;7666;50.920;4.628;2023-08-30T14:10:54;3.07;;;1.17;;
15130;SDS011;7666;50.920;4.628;2023-08-30T14:13:40;3.40;;;1.37;;
15130;SDS011;7666;50.920;4.628;2023-08-30T14:16:26;5.30;;;1.53;;
15130;SDS011;7666;50.920;4.628;2023-08-30T14:19:14;6.63;;;1.60;;
15130;SDS011;7666;50.920;4.628;2023-08-30T14:22:01;4.33;;;1.57;;
15130;SDS011;7666;50.920;4.628;2023-08-30T14:24:49;7.10;;;1.80;;
15130;SDS011;7666;50.920;4.628;2023-08-30T14:27:35;5.77;;;1.40;;
15130;SDS011;7666;50.920;4.628;2023-08-30T14:30:21;4.77;;;1.90;;
15130;SDS011;7666;50.920;4.628;2023-08-30T14:33:07;7.50;;;1.70;;
15130;SDS011;7666;50.920;4.628;2023-08-30T14:35:53;4.10;;;1.60;;
15130;SDS011;7666;50.920;4.628;2023-08-30T14:38:39;3.37;;;1.50;;
15130;SDS011;7666;50.920;4.628;2023-08-30T14:41:26;5.23;;;1.50;;
15130;SDS011;7666;50.920;4.628;2023-08-30T14:44:13;4.20;;;1.30;;
15130;SDS011;7666;50.920;4.628;2023-08-30T14:46:59;4.07;;;1.50;;
15130;SDS011;7666;50.920;4.628;2023-08-30T14:49:45;6.43;;;1.67;;
15130;SDS011;7666;50.920;4.628;2023-08-30T14:52:31;3.80;;;1.67;;
15130;SDS011;7666;50.920;4.628;2023-08-30T14:55:17;4.87;;;1.40;;
15130;SDS011;7666;50.920;4.628;2023-08-30T14:58:03;4.90;;;1.60;;
15130;SDS011;7666;50.920;4.628;2023-08-30T15:00:49;5.90;;;1.50;;
15130;SDS011;7666;50.920;4.628;2023-08-30T15:03:35;5.87;;;1.60;;
15130;SDS011;7666;50.920;4.628;2023-08-30T15:06:21;4.27;;;1.40;;
15130;SDS011;7666;50.920;4.628;2023-08-30T15:09:11;6.00;;;1.43;;
15130;SDS011;7666;50.920;4.628;2023-08-30T15:12:01;3.53;;;1.17;;
15130;SDS011;7666;50.920;4.628;2023-08-30T15:14:48;4.83;;;1.80;;
15130;SDS011;7666;50.920;4.628;2023-08-30T15:17:34;3.60;;;1.60;;
15130;SDS011;7666;50.920;4.628;2023-08-30T15:20:20;4.53;;;1.67;;
15130;SDS011;7666;50.920;4.628;2023-08-30T15:23:06;4.77;;;1.57;;
15130;SDS011;7666;50.920;4.628;2023-08-30T15:25:52;7.07;;;1.77;;
15130;SDS011;7666;50.920;4.628;2023-08-30T15:28:38;4.50;;;1.40;;
15130;SDS011;7666;50.920;4.628;2023-08-30T15:31:24;4.23;;;1.17;;
15130;SDS011;7666;50.920;4.628;2023-08-30T15:34:10;4.37;;;1.43;;
15130;SDS011;7666;50.920;4.628;2023-08-30T15:36:56;3.13;;;1.30;;
15130;SDS011;7666;50.920;4.628;2023-08-30T15:39:42;5.03;;;1.30;;
15130;SDS011;7666;50.920;4.628;2023-08-30T15:42:29;4.40;;;1.40;;
15130;SDS011;7666;50.920;4.628;2023-08-30T15:45:18;4.20;;;1.20;;
15130;SDS011;7666;50.920;4.628;2023-08-30T15:48:04;5.83;;;1.77;;
15130;SDS011;7666;50.920;4.628;2023-08-30T15:50:50;3.93;;;1.33;;
15130;SDS011;7666;50.920;4.628;2023-08-30T15:53:36;4.23;;;1.40;;
15130;SDS011;7666;50.920;4.628;2023-08-30T15:56:22;3.37;;;1.47;;
15130;SDS011;7666;50.920;4.628;2023-08-30T15:59:09;4.20;;;1.60;;
15130;SDS011;7666;50.920;4.628;2023-08-30T16:01:55;4.30;;;1.50;;
15130;SDS011;7666;50.920;4.628;2023-08-30T16:04:41;4.40;;;1.50;;
15130;SDS011;7666;50.920;4.628;2023-08-30T16:07:27;5.17;;;1.50;;
15130;SDS011;7666;50.920;4.628;2023-08-30T16:10:13;3.60;;;1.20;;
15130;SDS011;7666;50.920;4.628;2023-08-30T16:12:59;4.97;;;1.40;;
15130;SDS011;7666;50.920;4.628;2023-08-30T16:15:45;6.07;;;1.60;;
15130;SDS011;7666;50.920;4.628;2023-08-30T16:18:31;2.57;;;1.20;;
15130;SDS011;7666;50.920;4.628;2023-08-30T16:21:17;2.80;;;1.20;;
15130;SDS011;7666;50.920;4.628;2023-08-30T16:24:03;5.40;;;1.63;;
15130;SDS011;7666;50.920;4.628;2023-08-30T16:26:49;5.20;;;1.50;;
15130;SDS011;7666;50.920;4.628;2023-08-30T16:29:41;7.10;;;1.47;;
15130;SDS011;7666;50.920;4.628;2023-08-30T16:32:27;5.60;;;1.57;;
15130;SDS011;7666;50.920;4.628;2023-08-30T16:35:13;3.33;;;1.40;;
15130;SDS011;7666;50.920;4.628;2023-08-30T16:37:59;3.83;;;1.20;;
15130;SDS011;7666;50.920;4.628;2023-08-30T16:40:45;3.43;;;1.30;;
15130;SDS011;7666;50.920;4.628;2023-08-30T16:43:31;4.23;;;1.20;;
15130;SDS011;7666;50.920;4.628;2023-08-30T16:46:17;3.90;;;1.10;;
15130;SDS011;7666;50.920;4.628;2023-08-30T16:49:04;3.17;;;1.20;;
15130;SDS011;7666;50.920;4.628;2023-08-30T16:51:51;3.47;;;1.30;;
15130;SDS011;7666;50.920;4.628;2023-08-30T16:54:39;5.30;;;1.23;;
15130;SDS011;7666;50.920;4.628;2023-08-30T16:57:25;5.93;;;1.60;;
15130;SDS011;7666;50.920;4.628;2023-08-30T17:00:14;3.27;;;1.40;;
15130;SDS011;7666;50.920;4.628;2023-08-30T17:03:01;3.87;;;1.43;;
15130;SDS011;7666;50.920;4.628;2023-08-30T17:05:49;4.13;;;1.57;;
15130;SDS011;7666;50.920;4.628;2023-08-30T17:08:35;5.80;;;1.30;;